sensor_id;sensor_type;location;lat;lon;timestamp;P1;durP1;ratioP1;P2;durP2;ratioP2
58139;SDS011;53185;47.378;18.922;2023-09-30T00:00:19;24.08;;;11.60;;
58139;SDS011;53185;47.378;18.922;2023-09-30T00:02:47;23.20;;;12.13;;
58139;SDS011;53185;47.378;18.922;2023-09-30T00:05:14;24.77;;;12.80;;
58139;SDS011;53185;47.378;18.922;2023-09-30T00:07:42;26.10;;;11.82;;
58139;SDS011;53185;47.378;18.922;2023-09-30T00:10:10;28.33;;;12.10;;
58139;SDS011;53185;47.378;18.922;2023-09-30T00:12:38;21.30;;;12.02;;
58139;SDS011;53185;47.378;18.922;2023-09-30T00:15:06;18.90;;;11.57;;
58139;SDS011;53185;47.378;18.922;2023-09-30T00:17:34;24.83;;;12.45;;
58139;SDS011;53185;47.378;18.922;2023-09-30T00:20:02;23.92;;;10.80;;
58139;SDS011;53185;47.378;18.922;2023-09-30T00:22:51;20.45;;;11.20;;
58139;SDS011;53185;47.378;18.922;2023-09-30T00:25:19;24.20;;;11.80;;
58139;SDS011;53185;47.378;18.922;2023-09-30T00:27:48;22.23;;;11.43;;
58139;SDS011;53185;47.378;18.922;2023-09-30T00:30:16;18.87;;;10.95;;
58139;SDS011;53185;47.378;18.922;2023-09-30T00:32:44;33.72;;;19.10;;
58139;SDS011;53185;47.378;18.922;2023-09-30T00:35:12;25.75;;;13.40;;
58139;SDS011;53185;47.378;18.922;2023-09-30T00:37:40;16.55;;;10.45;;
58139;SDS011;53185;47.378;18.922;2023-09-30T00:40:13;21.73;;;11.32;;
58139;SDS011;53185;47.378;18.922;2023-09-30T00:42:41;23.08;;;11.50;;
58139;SDS011;53185;47.378;18.922;2023-09-30T00:45:15;19.33;;;11.70;;
58139;SDS011;53185;47.378;18.922;2023-09-30T00:47:43;17.50;;;10.13;;
58139;SDS011;53185;47.378;18.922;2023-09-30T00:50:11;18.87;;;10.15;;
58139;SDS011;53185;47.378;18.922;2023-09-30T00:52:40;24.25;;;11.75;;
58139;SDS011;53185;47.378;18.922;2023-09-30T00:55:08;23.92;;;12.15;;
58139;SDS011;53185;47.378;18.922;2023-09-30T00:57:38;23.07;;;10.87;;
58139;SDS011;53185;47.378;18.922;2023-09-30T01:00:07;23.33;;;11.45;;
58139;SDS011;53185;47.378;18.922;2023-09-30T01:02:40;21.37;;;11.85;;
58139;SDS011;53185;47.378;18.922;2023-09-30T01:05:09;23.10;;;11.07;;
58139;SDS011;53185;47.378;18.922;2023-09-30T01:07:36;19.48;;;11.05;;
58139;SDS011;53185;47.378;18.922;2023-09-30T01:10:05;36.13;;;11.68;;
58139;SDS011;53185;47.378;18.922;2023-09-30T01:12:33;17.37;;;10.60;;
58139;SDS011;53185;47.378;18.922;2023-09-30T01:15:03;21.20;;;11.87;;
58139;SDS011;53185;47.378;18.922;2023-09-30T01:17:35;25.95;;;11.52;;
58139;SDS011;53185;47.378;18.922;2023-09-30T01:20:03;18.73;;;11.02;;
58139;SDS011;53185;47.378;18.922;2023-09-30T01:22:35;22.90;;;10.88;;
58139;SDS011;53185;47.378;18.922;2023-09-30T01:25:02;21.98;;;11.07;;
58139;SDS011;53185;47.378;18.922;2023-09-30T01:27:33;23.38;;;11.52;;
58139;SDS011;53185;47.378;18.922;2023-09-30T01:30:01;20.80;;;11.90;;
58139;SDS011;53185;47.378;18.922;2023-09-30T01:32:31;24.02;;;11.20;;
58139;SDS011;53185;47.378;18.922;2023-09-30T01:34:59;21.48;;;10.70;;
58139;SDS011;53185;47.378;18.922;2023-09-30T01:37:28;21.55;;;11.27;;
58139;SDS011;53185;47.378;18.922;2023-09-30T01:39:55;20.33;;;11.18;;
58139;SDS011;53185;47.378;18.922;2023-09-30T01:42:22;26.30;;;11.38;;
58139;SDS011;53185;47.378;18.922;2023-09-30T01:44:50;19.30;;;11.05;;
58139;SDS011;53185;47.378;18.922;2023-09-30T01:47:17;20.75;;;11.50;;
58139;SDS011;53185;47.378;18.922;2023-09-30T01:49:44;18.87;;;10.52;;
58139;SDS011;53185;47.378;18.922;2023-09-30T01:52:12;20.20;;;11.05;;
58139;SDS011;53185;47.378;18.922;2023-09-30T01:54:40;20.02;;;10.02;;
58139;SDS011;53185;47.378;18.922;2023-09-30T01:57:07;23.08;;;11.25;;
58139;SDS011;53185;47.378;18.922;2023-09-30T01:59:34;20.27;;;10.43;;
58139;SDS011;53185;47.378;18.922;2023-09-30T02:02:02;18.90;;;11.15;;
58139;SDS011;53185;47.378;18.922;2023-09-30T02:04:30;19.17;;;11.10;;
58139;SDS011;53185;47.378;18.922;2023-09-30T02:06:58;21.45;;;10.45;;
58139;SDS011;53185;47.378;18.922;2023-09-30T02:09:26;17.73;;;10.63;;
58139;SDS011;53185;47.378;18.922;2023-09-30T02:11:54;19.20;;;9.63;;
58139;SDS011;53185;47.378;18.922;2023-09-30T02:14:22;18.17;;;10.27;;
58139;SDS011;53185;47.378;18.922;2023-09-30T02:16:49;18.25;;;10.25;;
58139;SDS011;53185;47.378;18.922;2023-09-30T02:19:18;15.65;;;9.73;;
58139;SDS011;53185;47.378;18.922;2023-09-30T02:21:46;19.87;;;10.18;;
58139;SDS011;53185;47.378;18.922;2023-09-30T02:24:17;25.73;;;10.60;;
58139;SDS011;53185;47.378;18.922;2023-09-30T02:26:44;18.60;;;10.32;;
58139;SDS011;53185;47.378;18.922;2023-09-30T02:29:11;22.73;;;10.63;;
58139;SDS011;53185;47.378;18.922;2023-09-30T02:31:39;18.35;;;10.07;;
58139;SDS011;53185;47.378;18.922;2023-09-30T02:34:08;16.60;;;10.05;;
58139;SDS011;53185;47.378;18.922;2023-09-30T02:36:35;26.75;;;10.55;;
58139;SDS011;53185;47.378;18.922;2023-09-30T02:39:06;28.12;;;12.35;;
58139;SDS011;53185;47.378;18.922;2023-09-30T02:41:35;19.12;;;10.25;;
58139;SDS011;53185;47.378;18.922;2023-09-30T02:44:04;26.52;;;10.18;;
58139;SDS011;53185;47.378;18.922;2023-09-30T02:46:32;21.75;;;10.50;;
58139;SDS011;53185;47.378;18.922;2023-09-30T02:49:00;25.77;;;10.88;;
58139;SDS011;53185;47.378;18.922;2023-09-30T02:51:30;24.92;;;11.40;;
58139;SDS011;53185;47.378;18.922;2023-09-30T02:53:58;20.05;;;9.68;;
58139;SDS011;53185;47.378;18.922;2023-09-30T02:56:26;21.73;;;11.18;;
58139;SDS011;53185;47.378;18.922;2023-09-30T02:58:55;21.30;;;11.05;;
58139;SDS011;53185;47.378;18.922;2023-09-30T03:01:22;22.87;;;10.68;;
58139;SDS011;53185;47.378;18.922;2023-09-30T03:03:50;21.73;;;9.85;;
58139;SDS011;53185;47.378;18.922;2023-09-30T03:06:17;18.02;;;10.80;;
58139;SDS011;53185;47.378;18.922;2023-09-30T03:08:46;23.40;;;12.50;;
58139;SDS011;53185;47.378;18.922;2023-09-30T03:11:13;20.23;;;10.23;;
58139;SDS011;53185;47.378;18.922;2023-09-30T03:13:40;23.00;;;10.15;;
58139;SDS011;53185;47.378;18.922;2023-09-30T03:16:09;23.17;;;11.30;;
58139;SDS011;53185;47.378;18.922;2023-09-30T03:18:37;20.08;;;10.30;;
58139;SDS011;53185;47.378;18.922;2023-09-30T03:21:14;21.35;;;11.25;;
58139;SDS011;53185;47.378;18.922;2023-09-30T03:23:43;22.13;;;10.73;;
58139;SDS011;53185;47.378;18.922;2023-09-30T03:26:10;24.40;;;13.85;;
58139;SDS011;53185;47.378;18.922;2023-09-30T03:28:37;20.27;;;10.57;;
58139;SDS011;53185;47.378;18.922;2023-09-30T03:31:05;22.23;;;10.52;;
58139;SDS011;53185;47.378;18.922;2023-09-30T03:33:34;16.83;;;10.63;;
58139;SDS011;53185;47.378;18.922;2023-09-30T03:36:01;20.58;;;11.35;;
58139;SDS011;53185;47.378;18.922;2023-09-30T03:38:31;20.40;;;10.85;;
58139;SDS011;53185;47.378;18.922;2023-09-30T03:40:59;19.37;;;10.10;;
58139;SDS011;53185;47.378;18.922;2023-09-30T03:43:26;14.87;;;9.98;;
58139;SDS011;53185;47.378;18.922;2023-09-30T03:45:54;18.00;;;9.70;;
58139;SDS011;53185;47.378;18.922;2023-09-30T03:48:22;21.02;;;11.32;;
58139;SDS011;53185;47.378;18.922;2023-09-30T03:50:49;16.87;;;9.68;;
58139;SDS011;53185;47.378;18.922;2023-09-30T03:53:19;22.55;;;9.30;;
58139;SDS011;53185;47.378;18.922;2023-09-30T03:55:48;17.60;;;10.18;;
58139;SDS011;53185;47.378;18.922;2023-09-30T03:58:15;20.65;;;9.93;;
58139;SDS011;53185;47.378;18.922;2023-09-30T04:00:44;16.25;;;8.98;;
58139;SDS011;53185;47.378;18.922;2023-09-30T04:03:12;14.87;;;9.80;;
58139;SDS011;53185;47.378;18.922;2023-09-30T04:05:39;21.95;;;10.38;;
58139;SDS011;53185;47.378;18.922;2023-09-30T04:08:07;18.27;;;10.15;;
58139;SDS011;53185;47.378;18.922;2023-09-30T04:10:34;17.23;;;10.60;;
58139;SDS011;53185;47.378;18.922;2023-09-30T04:13:02;18.23;;;9.95;;
58139;SDS011;53185;47.378;18.922;2023-09-30T04:15:29;16.75;;;10.23;;
58139;SDS011;53185;47.378;18.922;2023-09-30T04:17:59;28.20;;;10.83;;
58139;SDS011;53185;47.378;18.922;2023-09-30T04:20:28;17.80;;;10.45;;
58139;SDS011;53185;47.378;18.922;2023-09-30T04:22:56;19.45;;;10.05;;
58139;SDS011;53185;47.378;18.922;2023-09-30T04:25:25;21.90;;;10.60;;
58139;SDS011;53185;47.378;18.922;2023-09-30T04:27:53;20.15;;;10.05;;
58139;SDS011;53185;47.378;18.922;2023-09-30T04:30:22;25.58;;;11.15;;
58139;SDS011;53185;47.378;18.922;2023-09-30T04:32:50;21.20;;;10.43;;
58139;SDS011;53185;47.378;18.922;2023-09-30T04:35:17;25.62;;;9.80;;
58139;SDS011;53185;47.378;18.922;2023-09-30T04:37:44;27.15;;;11.20;;
58139;SDS011;53185;47.378;18.922;2023-09-30T04:40:12;17.10;;;9.77;;
58139;SDS011;53185;47.378;18.922;2023-09-30T04:42:47;20.17;;;9.85;;
58139;SDS011;53185;47.378;18.922;2023-09-30T04:45:15;15.40;;;9.60;;
58139;SDS011;53185;47.378;18.922;2023-09-30T04:47:52;24.83;;;12.00;;
58139;SDS011;53185;47.378;18.922;2023-09-30T04:50:20;27.62;;;9.65;;
58139;SDS011;53185;47.378;18.922;2023-09-30T04:52:52;17.75;;;9.68;;
58139;SDS011;53185;47.378;18.922;2023-09-30T04:55:20;25.73;;;10.52;;
58139;SDS011;53185;47.378;18.922;2023-09-30T04:57:48;21.27;;;9.95;;
58139;SDS011;53185;47.378;18.922;2023-09-30T05:00:16;22.13;;;10.23;;
58139;SDS011;53185;47.378;18.922;2023-09-30T05:02:57;20.83;;;9.63;;
58139;SDS011;53185;47.378;18.922;2023-09-30T05:05:26;23.92;;;10.02;;
58139;SDS011;53185;47.378;18.922;2023-09-30T05:07:54;18.27;;;10.43;;
58139;SDS011;53185;47.378;18.922;2023-09-30T05:10:21;22.83;;;10.63;;
58139;SDS011;53185;47.378;18.922;2023-09-30T05:12:49;17.70;;;10.13;;
58139;SDS011;53185;47.378;18.922;2023-09-30T05:15:19;22.90;;;10.23;;
58139;SDS011;53185;47.378;18.922;2023-09-30T05:17:47;23.67;;;11.82;;
58139;SDS011;53185;47.378;18.922;2023-09-30T05:20:15;20.83;;;10.35;;
58139;SDS011;53185;47.378;18.922;2023-09-30T05:22:49;23.65;;;10.05;;
58139;SDS011;53185;47.378;18.922;2023-09-30T05:25:17;26.70;;;11.20;;
58139;SDS011;53185;47.378;18.922;2023-09-30T05:27:45;17.55;;;9.77;;
58139;SDS011;53185;47.378;18.922;2023-09-30T05:30:15;23.25;;;10.57;;
58139;SDS011;53185;47.378;18.922;2023-09-30T05:32:43;18.65;;;9.85;;
58139;SDS011;53185;47.378;18.922;2023-09-30T05:37:45;19.02;;;9.60;;
58139;SDS011;53185;47.378;18.922;2023-09-30T05:40:12;18.48;;;9.77;;
58139;SDS011;53185;47.378;18.922;2023-09-30T05:42:54;16.58;;;10.38;;
58139;SDS011;53185;47.378;18.922;2023-09-30T05:45:22;26.60;;;10.38;;
58139;SDS011;53185;47.378;18.922;2023-09-30T05:47:56;16.02;;;9.88;;
58139;SDS011;53185;47.378;18.922;2023-09-30T05:50:24;20.37;;;10.63;;
58139;SDS011;53185;47.378;18.922;2023-09-30T05:52:54;15.65;;;10.35;;
58139;SDS011;53185;47.378;18.922;2023-09-30T05:55:23;15.20;;;10.00;;
58139;SDS011;53185;47.378;18.922;2023-09-30T05:57:53;20.60;;;11.10;;
58139;SDS011;53185;47.378;18.922;2023-09-30T06:00:21;25.73;;;11.55;;
58139;SDS011;53185;47.378;18.922;2023-09-30T06:02:56;20.90;;;10.80;;
58139;SDS011;53185;47.378;18.922;2023-09-30T06:05:27;23.48;;;10.63;;
58139;SDS011;53185;47.378;18.922;2023-09-30T06:07:58;26.02;;;11.45;;
58139;SDS011;53185;47.378;18.922;2023-09-30T06:10:30;21.83;;;11.10;;
58139;SDS011;53185;47.378;18.922;2023-09-30T06:12:57;21.02;;;9.82;;
58139;SDS011;53185;47.378;18.922;2023-09-30T06:15:31;20.55;;;10.23;;
58139;SDS011;53185;47.378;18.922;2023-09-30T06:17:59;16.55;;;9.93;;
58139;SDS011;53185;47.378;18.922;2023-09-30T06:20:27;16.87;;;9.88;;
58139;SDS011;53185;47.378;18.922;2023-09-30T06:22:58;16.02;;;9.88;;
58139;SDS011;53185;47.378;18.922;2023-09-30T06:25:25;20.70;;;10.27;;
58139;SDS011;53185;47.378;18.922;2023-09-30T06:27:52;16.35;;;9.82;;
58139;SDS011;53185;47.378;18.922;2023-09-30T06:30:22;15.57;;;9.97;;
58139;SDS011;53185;47.378;18.922;2023-09-30T06:32:57;20.65;;;9.48;;
58139;SDS011;53185;47.378;18.922;2023-09-30T06:35:27;18.60;;;10.18;;
58139;SDS011;53185;47.378;18.922;2023-09-30T06:37:57;22.55;;;11.63;;
58139;SDS011;53185;47.378;18.922;2023-09-30T06:40:24;25.85;;;9.35;;
58139;SDS011;53185;47.378;18.922;2023-09-30T06:42:52;19.95;;;10.48;;
58139;SDS011;53185;47.378;18.922;2023-09-30T06:45:20;28.38;;;10.05;;
58139;SDS011;53185;47.378;18.922;2023-09-30T06:47:49;24.23;;;10.25;;
58139;SDS011;53185;47.378;18.922;2023-09-30T06:50:16;20.58;;;10.02;;
58139;SDS011;53185;47.378;18.922;2023-09-30T06:52:44;24.60;;;10.50;;
58139;SDS011;53185;47.378;18.922;2023-09-30T06:55:17;16.58;;;9.60;;
58139;SDS011;53185;47.378;18.922;2023-09-30T06:57:44;18.15;;;10.20;;
58139;SDS011;53185;47.378;18.922;2023-09-30T07:00:13;18.85;;;10.10;;
58139;SDS011;53185;47.378;18.922;2023-09-30T07:02:41;19.08;;;10.85;;
58139;SDS011;53185;47.378;18.922;2023-09-30T07:05:10;16.83;;;10.45;;
58139;SDS011;53185;47.378;18.922;2023-09-30T07:07:39;20.08;;;11.35;;
58139;SDS011;53185;47.378;18.922;2023-09-30T07:10:08;21.35;;;10.25;;
58139;SDS011;53185;47.378;18.922;2023-09-30T07:12:37;17.70;;;10.95;;
58139;SDS011;53185;47.378;18.922;2023-09-30T07:15:05;17.67;;;11.07;;
58139;SDS011;53185;47.378;18.922;2023-09-30T07:17:33;24.77;;;11.98;;
58139;SDS011;53185;47.378;18.922;2023-09-30T07:20:02;19.10;;;12.40;;
58139;SDS011;53185;47.378;18.922;2023-09-30T07:25:17;20.45;;;10.00;;
58139;SDS011;53185;47.378;18.922;2023-09-30T07:27:44;14.95;;;8.77;;
58139;SDS011;53185;47.378;18.922;2023-09-30T07:30:15;12.73;;;9.20;;
58139;SDS011;53185;47.378;18.922;2023-09-30T07:32:46;20.00;;;9.80;;
58139;SDS011;53185;47.378;18.922;2023-09-30T07:35:14;15.63;;;8.68;;
58139;SDS011;53185;47.378;18.922;2023-09-30T07:37:42;15.30;;;9.82;;
58139;SDS011;53185;47.378;18.922;2023-09-30T07:40:11;17.35;;;9.75;;
58139;SDS011;53185;47.378;18.922;2023-09-30T07:42:44;18.45;;;9.13;;
58139;SDS011;53185;47.378;18.922;2023-09-30T07:45:13;14.87;;;8.68;;
58139;SDS011;53185;47.378;18.922;2023-09-30T07:47:44;17.23;;;8.50;;
58139;SDS011;53185;47.378;18.922;2023-09-30T07:50:15;25.15;;;8.18;;
58139;SDS011;53185;47.378;18.922;2023-09-30T07:52:42;19.05;;;8.90;;
58139;SDS011;53185;47.378;18.922;2023-09-30T07:55:10;20.17;;;8.60;;
58139;SDS011;53185;47.378;18.922;2023-09-30T07:57:39;18.30;;;8.00;;
58139;SDS011;53185;47.378;18.922;2023-09-30T08:00:08;14.38;;;8.05;;
58139;SDS011;53185;47.378;18.922;2023-09-30T08:02:45;16.33;;;8.23;;
58139;SDS011;53185;47.378;18.922;2023-09-30T08:05:13;20.17;;;8.70;;
58139;SDS011;53185;47.378;18.922;2023-09-30T08:07:40;17.00;;;8.90;;
58139;SDS011;53185;47.378;18.922;2023-09-30T08:10:09;14.68;;;9.95;;
58139;SDS011;53185;47.378;18.922;2023-09-30T08:12:41;17.08;;;9.70;;
58139;SDS011;53185;47.378;18.922;2023-09-30T08:15:11;15.73;;;9.65;;
58139;SDS011;53185;47.378;18.922;2023-09-30T08:17:39;22.70;;;13.27;;
58139;SDS011;53185;47.378;18.922;2023-09-30T08:20:07;17.70;;;8.85;;
58139;SDS011;53185;47.378;18.922;2023-09-30T08:22:41;12.13;;;8.85;;
58139;SDS011;53185;47.378;18.922;2023-09-30T08:25:08;16.00;;;8.85;;
58139;SDS011;53185;47.378;18.922;2023-09-30T08:27:37;12.25;;;7.93;;
58139;SDS011;53185;47.378;18.922;2023-09-30T08:30:06;19.67;;;8.50;;
58139;SDS011;53185;47.378;18.922;2023-09-30T08:32:36;19.70;;;8.10;;
58139;SDS011;53185;47.378;18.922;2023-09-30T08:35:04;15.77;;;7.85;;
58139;SDS011;53185;47.378;18.922;2023-09-30T08:37:34;14.38;;;7.53;;
58139;SDS011;53185;47.378;18.922;2023-09-30T08:40:02;15.23;;;7.70;;
58139;SDS011;53185;47.378;18.922;2023-09-30T08:42:33;12.32;;;7.20;;
58139;SDS011;53185;47.378;18.922;2023-09-30T08:45:03;10.52;;;6.00;;
58139;SDS011;53185;47.378;18.922;2023-09-30T08:47:35;9.65;;;5.70;;
58139;SDS011;53185;47.378;18.922;2023-09-30T08:50:04;10.18;;;5.65;;
58139;SDS011;53185;47.378;18.922;2023-09-30T08:52:37;9.68;;;6.20;;
58139;SDS011;53185;47.378;18.922;2023-09-30T08:55:07;9.48;;;5.80;;
58139;SDS011;53185;47.378;18.922;2023-09-30T08:57:39;14.82;;;6.53;;
58139;SDS011;53185;47.378;18.922;2023-09-30T09:00:10;10.45;;;6.43;;
58139;SDS011;53185;47.378;18.922;2023-09-30T09:02:42;20.75;;;8.60;;
58139;SDS011;53185;47.378;18.922;2023-09-30T09:05:10;17.48;;;6.22;;
58139;SDS011;53185;47.378;18.922;2023-09-30T09:10:11;9.52;;;5.87;;
58139;SDS011;53185;47.378;18.922;2023-09-30T09:12:41;9.32;;;6.72;;
58139;SDS011;53185;47.378;18.922;2023-09-30T09:15:20;16.95;;;7.35;;
58139;SDS011;53185;47.378;18.922;2023-09-30T09:17:51;14.98;;;7.97;;
58139;SDS011;53185;47.378;18.922;2023-09-30T09:20:21;10.10;;;6.45;;
58139;SDS011;53185;47.378;18.922;2023-09-30T09:22:52;10.15;;;6.57;;
58139;SDS011;53185;47.378;18.922;2023-09-30T09:31:32;12.23;;;6.45;;
58139;SDS011;53185;47.378;18.922;2023-09-30T09:34:04;9.70;;;5.97;;
58139;SDS011;53185;47.378;18.922;2023-09-30T09:36:44;12.25;;;6.30;;
58139;SDS011;53185;47.378;18.922;2023-09-30T09:42:32;16.87;;;7.35;;
58139;SDS011;53185;47.378;18.922;2023-09-30T09:45:04;8.50;;;6.32;;
58139;SDS011;53185;47.378;18.922;2023-09-30T09:47:33;11.73;;;6.62;;
58139;SDS011;53185;47.378;18.922;2023-09-30T09:50:03;10.15;;;6.15;;
58139;SDS011;53185;47.378;18.922;2023-09-30T09:54:59;10.57;;;7.70;;
58139;SDS011;53185;47.378;18.922;2023-09-30T09:57:27;10.63;;;6.60;;
58139;SDS011;53185;47.378;18.922;2023-09-30T10:02:27;16.02;;;6.80;;
58139;SDS011;53185;47.378;18.922;2023-09-30T10:04:56;13.82;;;6.65;;
58139;SDS011;53185;47.378;18.922;2023-09-30T10:10:01;12.65;;;6.12;;
58139;SDS011;53185;47.378;18.922;2023-09-30T10:12:35;11.20;;;6.32;;
58139;SDS011;53185;47.378;18.922;2023-09-30T10:28:46;10.90;;;5.60;;
58139;SDS011;53185;47.378;18.922;2023-09-30T10:31:20;12.05;;;5.95;;
58139;SDS011;53185;47.378;18.922;2023-09-30T10:36:47;11.95;;;5.50;;
58139;SDS011;53185;47.378;18.922;2023-09-30T10:39:52;8.23;;;5.30;;
58139;SDS011;53185;47.378;18.922;2023-09-30T10:51:10;12.15;;;7.87;;
58139;SDS011;53185;47.378;18.922;2023-09-30T10:53:46;15.10;;;5.78;;
58139;SDS011;53185;47.378;18.922;2023-09-30T10:56:16;10.13;;;5.80;;
58139;SDS011;53185;47.378;18.922;2023-09-30T11:01:14;8.85;;;5.12;;
58139;SDS011;53185;47.378;18.922;2023-09-30T11:03:45;10.02;;;5.28;;
58139;SDS011;53185;47.378;18.922;2023-09-30T11:06:14;11.90;;;5.93;;
58139;SDS011;53185;47.378;18.922;2023-09-30T11:08:53;16.83;;;6.15;;
58139;SDS011;53185;47.378;18.922;2023-09-30T11:11:36;9.63;;;5.97;;
58139;SDS011;53185;47.378;18.922;2023-09-30T11:17:36;13.43;;;6.07;;
58139;SDS011;53185;47.378;18.922;2023-09-30T11:23:34;14.95;;;6.50;;
58139;SDS011;53185;47.378;18.922;2023-09-30T11:26:03;10.90;;;6.50;;
58139;SDS011;53185;47.378;18.922;2023-09-30T11:28:43;10.18;;;6.68;;
58139;SDS011;53185;47.378;18.922;2023-09-30T11:31:12;12.15;;;6.53;;
58139;SDS011;53185;47.378;18.922;2023-09-30T11:33:49;11.90;;;7.07;;
58139;SDS011;53185;47.378;18.922;2023-09-30T11:36:21;11.77;;;7.07;;
58139;SDS011;53185;47.378;18.922;2023-09-30T11:38:50;16.62;;;8.70;;
58139;SDS011;53185;47.378;18.922;2023-09-30T11:41:20;20.00;;;7.78;;
58139;SDS011;53185;47.378;18.922;2023-09-30T11:44:06;12.57;;;6.90;;
58139;SDS011;53185;47.378;18.922;2023-09-30T11:46:52;11.57;;;6.87;;
58139;SDS011;53185;47.378;18.922;2023-09-30T11:49:32;11.65;;;7.30;;
58139;SDS011;53185;47.378;18.922;2023-09-30T11:52:09;17.55;;;7.55;;
58139;SDS011;53185;47.378;18.922;2023-09-30T11:54:39;13.10;;;7.15;;
58139;SDS011;53185;47.378;18.922;2023-09-30T11:57:12;14.95;;;7.35;;
58139;SDS011;53185;47.378;18.922;2023-09-30T11:59:44;13.93;;;6.93;;
58139;SDS011;53185;47.378;18.922;2023-09-30T12:02:13;11.30;;;6.82;;
58139;SDS011;53185;47.378;18.922;2023-09-30T12:04:42;13.32;;;7.53;;
58139;SDS011;53185;47.378;18.922;2023-09-30T12:07:11;14.73;;;7.28;;
58139;SDS011;53185;47.378;18.922;2023-09-30T12:09:38;14.25;;;6.78;;
58139;SDS011;53185;47.378;18.922;2023-09-30T12:12:11;18.45;;;7.97;;
58139;SDS011;53185;47.378;18.922;2023-09-30T12:17:09;16.08;;;8.07;;
58139;SDS011;53185;47.378;18.922;2023-09-30T12:19:41;11.25;;;7.00;;
58139;SDS011;53185;47.378;18.922;2023-09-30T12:22:10;12.73;;;6.78;;
58139;SDS011;53185;47.378;18.922;2023-09-30T12:24:38;16.85;;;8.10;;
58139;SDS011;53185;47.378;18.922;2023-09-30T12:27:07;23.02;;;7.30;;
58139;SDS011;53185;47.378;18.922;2023-09-30T12:29:34;16.30;;;7.87;;
58139;SDS011;53185;47.378;18.922;2023-09-30T12:32:01;14.00;;;7.82;;
58139;SDS011;53185;47.378;18.922;2023-09-30T12:34:29;16.02;;;7.85;;
58139;SDS011;53185;47.378;18.922;2023-09-30T12:37:00;16.75;;;7.72;;
58139;SDS011;53185;47.378;18.922;2023-09-30T12:39:27;13.75;;;7.55;;
58139;SDS011;53185;47.378;18.922;2023-09-30T12:41:57;11.02;;;6.87;;
58139;SDS011;53185;47.378;18.922;2023-09-30T12:44:25;17.50;;;7.75;;
58139;SDS011;53185;47.378;18.922;2023-09-30T12:46:53;16.58;;;7.57;;
58139;SDS011;53185;47.378;18.922;2023-09-30T12:49:20;18.37;;;7.10;;
58139;SDS011;53185;47.378;18.922;2023-09-30T12:51:49;14.52;;;6.45;;
58139;SDS011;53185;47.378;18.922;2023-09-30T12:54:16;16.58;;;7.72;;
58139;SDS011;53185;47.378;18.922;2023-09-30T12:56:46;19.55;;;7.87;;
58139;SDS011;53185;47.378;18.922;2023-09-30T12:59:15;20.75;;;8.38;;
58139;SDS011;53185;47.378;18.922;2023-09-30T13:01:43;20.35;;;8.65;;
58139;SDS011;53185;47.378;18.922;2023-09-30T13:04:11;15.68;;;7.97;;
58139;SDS011;53185;47.378;18.922;2023-09-30T13:06:39;15.23;;;7.45;;
58139;SDS011;53185;47.378;18.922;2023-09-30T13:09:08;16.50;;;6.40;;
58139;SDS011;53185;47.378;18.922;2023-09-30T13:11:36;16.20;;;7.03;;
58139;SDS011;53185;47.378;18.922;2023-09-30T13:14:04;15.80;;;7.37;;
58139;SDS011;53185;47.378;18.922;2023-09-30T13:16:32;18.35;;;8.27;;
58139;SDS011;53185;47.378;18.922;2023-09-30T13:21:30;15.68;;;7.87;;
58139;SDS011;53185;47.378;18.922;2023-09-30T13:23:59;14.30;;;7.85;;
58139;SDS011;53185;47.378;18.922;2023-09-30T13:26:27;18.05;;;8.30;;
58139;SDS011;53185;47.378;18.922;2023-09-30T13:29:00;14.75;;;7.95;;
58139;SDS011;53185;47.378;18.922;2023-09-30T13:31:31;15.18;;;7.45;;
58139;SDS011;53185;47.378;18.922;2023-09-30T13:34:00;10.90;;;7.32;;
58139;SDS011;53185;47.378;18.922;2023-09-30T13:36:27;14.10;;;8.10;;
58139;SDS011;53185;47.378;18.922;2023-09-30T13:38:55;15.05;;;7.97;;
58139;SDS011;53185;47.378;18.922;2023-09-30T13:41:26;13.18;;;7.35;;
58139;SDS011;53185;47.378;18.922;2023-09-30T13:43:56;19.60;;;7.93;;
58139;SDS011;53185;47.378;18.922;2023-09-30T13:46:24;15.23;;;7.10;;
58139;SDS011;53185;47.378;18.922;2023-09-30T13:48:53;15.77;;;8.10;;
58139;SDS011;53185;47.378;18.922;2023-09-30T13:51:20;14.55;;;8.32;;
58139;SDS011;53185;47.378;18.922;2023-09-30T13:53:48;13.70;;;7.70;;
58139;SDS011;53185;47.378;18.922;2023-09-30T13:56:15;16.62;;;8.15;;
58139;SDS011;53185;47.378;18.922;2023-09-30T13:58:43;13.82;;;8.57;;
58139;SDS011;53185;47.378;18.922;2023-09-30T14:01:14;13.77;;;8.65;;
58139;SDS011;53185;47.378;18.922;2023-09-30T14:03:47;13.43;;;8.35;;
58139;SDS011;53185;47.378;18.922;2023-09-30T14:06:23;16.50;;;9.25;;
58139;SDS011;53185;47.378;18.922;2023-09-30T14:08:53;23.02;;;8.52;;
58139;SDS011;53185;47.378;18.922;2023-09-30T14:11:20;15.55;;;8.90;;
58139;SDS011;53185;47.378;18.922;2023-09-30T14:13:50;17.42;;;10.40;;
58139;SDS011;53185;47.378;18.922;2023-09-30T14:16:17;15.57;;;8.55;;
58139;SDS011;53185;47.378;18.922;2023-09-30T14:18:46;19.27;;;8.90;;
58139;SDS011;53185;47.378;18.922;2023-09-30T14:21:17;14.68;;;8.25;;
58139;SDS011;53185;47.378;18.922;2023-09-30T14:23:45;22.95;;;10.82;;
58139;SDS011;53185;47.378;18.922;2023-09-30T14:26:13;17.83;;;11.65;;
58139;SDS011;53185;47.378;18.922;2023-09-30T14:28:44;13.62;;;8.55;;
58139;SDS011;53185;47.378;18.922;2023-09-30T14:31:12;16.17;;;8.65;;
58139;SDS011;53185;47.378;18.922;2023-09-30T14:33:42;13.82;;;8.23;;
58139;SDS011;53185;47.378;18.922;2023-09-30T14:36:10;12.95;;;7.72;;
58139;SDS011;53185;47.378;18.922;2023-09-30T14:38:38;13.05;;;8.68;;
58139;SDS011;53185;47.378;18.922;2023-09-30T14:41:06;15.82;;;8.90;;
58139;SDS011;53185;47.378;18.922;2023-09-30T14:43:39;19.33;;;8.90;;
58139;SDS011;53185;47.378;18.922;2023-09-30T14:46:07;22.13;;;11.75;;
58139;SDS011;53185;47.378;18.922;2023-09-30T14:48:38;15.70;;;8.95;;
58139;SDS011;53185;47.378;18.922;2023-09-30T14:51:07;15.68;;;8.77;;
58139;SDS011;53185;47.378;18.922;2023-09-30T14:53:34;14.85;;;8.20;;
58139;SDS011;53185;47.378;18.922;2023-09-30T14:56:13;25.52;;;9.98;;
58139;SDS011;53185;47.378;18.922;2023-09-30T14:58:46;18.90;;;9.60;;
58139;SDS011;53185;47.378;18.922;2023-09-30T15:01:15;25.52;;;14.93;;
58139;SDS011;53185;47.378;18.922;2023-09-30T15:03:46;17.95;;;8.45;;
58139;SDS011;53185;47.378;18.922;2023-09-30T15:06:14;19.00;;;8.75;;
58139;SDS011;53185;47.378;18.922;2023-09-30T15:08:42;22.25;;;8.85;;
58139;SDS011;53185;47.378;18.922;2023-09-30T15:11:14;17.20;;;8.82;;
58139;SDS011;53185;47.378;18.922;2023-09-30T15:13:44;18.75;;;12.80;;
58139;SDS011;53185;47.378;18.922;2023-09-30T15:16:17;17.77;;;9.47;;
58139;SDS011;53185;47.378;18.922;2023-09-30T15:18:54;20.60;;;9.63;;
58139;SDS011;53185;47.378;18.922;2023-09-30T15:21:25;18.35;;;9.23;;
58139;SDS011;53185;47.378;18.922;2023-09-30T15:23:54;13.80;;;8.30;;
58139;SDS011;53185;47.378;18.922;2023-09-30T15:26:30;18.90;;;9.90;;
58139;SDS011;53185;47.378;18.922;2023-09-30T15:28:59;14.87;;;9.27;;
58139;SDS011;53185;47.378;18.922;2023-09-30T15:31:30;16.70;;;9.07;;
58139;SDS011;53185;47.378;18.922;2023-09-30T15:34:00;14.95;;;7.95;;